sensor_id;sensor_type;location;lat;lon;timestamp;temperature;humidity
5828;DHT22;42583;50.240;8.444;2023-05-16T00:00:22;11.20;99.90
5828;DHT22;42583;50.240;8.444;2023-05-16T00:15:24;11.30;99.90
5828;DHT22;42583;50.240;8.444;2023-05-16T00:30:25;11.30;99.90
5828;DHT22;42583;50.240;8.444;2023-05-16T00:45:25;11.20;99.90
5828;DHT22;42583;50.240;8.444;2023-05-16T01:00:26;11.10;99.90
5828;DHT22;42583;50.240;8.444;2023-05-16T01:15:31;11.20;99.90
5828;DHT22;42583;50.240;8.444;2023-05-16T01:30:39;11.10;99.90
5828;DHT22;42583;50.240;8.444;2023-05-16T01:45:46;10.90;99.90
5828;DHT22;42583;50.240;8.444;2023-05-16T02:00:47;10.70;99.90
5828;DHT22;42583;50.240;8.444;2023-05-16T02:15:48;10.70;99.90
5828;DHT22;42583;50.240;8.444;2023-05-16T02:30:58;10.50;99.90
5828;DHT22;42583;50.240;8.444;2023-05-16T02:45:59;10.40;99.90
5828;DHT22;42583;50.240;8.444;2023-05-16T03:00:59;10.40;99.90
5828;DHT22;42583;50.240;8.444;2023-05-16T03:16:00;10.30;99.90
5828;DHT22;42583;50.240;8.444;2023-05-16T03:31:01;10.30;99.90
5828;DHT22;42583;50.240;8.444;2023-05-16T03:46:03;10.20;99.90
5828;DHT22;42583;50.240;8.444;2023-05-16T04:01:03;10.10;99.90
5828;DHT22;42583;50.240;8.444;2023-05-16T04:16:04;10.00;99.90
5828;DHT22;42583;50.240;8.444;2023-05-16T04:31:05;10.00;99.90
5828;DHT22;42583;50.240;8.444;2023-05-16T04:46:07;10.00;99.90
5828;DHT22;42583;50.240;8.444;2023-05-16T05:01:08;10.00;99.90
5828;DHT22;42583;50.240;8.444;2023-05-16T05:16:08;10.00;99.90
5828;DHT22;42583;50.240;8.444;2023-05-16T05:31:09;10.00;99.90
5828;DHT22;42583;50.240;8.444;2023-05-16T05:46:09;9.90;99.90
5828;DHT22;42583;50.240;8.444;2023-05-16T06:01:10;9.70;99.90
5828;DHT22;42583;50.240;8.444;2023-05-16T06:16:11;9.70;99.90
5828;DHT22;42583;50.240;8.444;2023-05-16T06:31:11;9.70;99.90
5828;DHT22;42583;50.240;8.444;2023-05-16T06:46:12;9.80;99.90
5828;DHT22;42583;50.240;8.444;2023-05-16T07:01:13;9.80;99.90
5828;DHT22;42583;50.240;8.444;2023-05-16T07:16:13;9.70;99.90
5828;DHT22;42583;50.240;8.444;2023-05-16T07:31:14;9.70;99.90
5828;DHT22;42583;50.240;8.444;2023-05-16T07:46:16;9.60;99.90
5828;DHT22;42583;50.240;8.444;2023-05-16T08:01:17;9.30;99.90
5828;DHT22;42583;50.240;8.444;2023-05-16T08:16:17;9.30;99.90
5828;DHT22;42583;50.240;8.444;2023-05-16T08:31:18;9.40;99.90
5828;DHT22;42583;50.240;8.444;2023-05-16T08:46:23;9.50;99.90
5828;DHT22;42583;50.240;8.444;2023-05-16T09:01:25;9.80;99.90
5828;DHT22;42583;50.240;8.444;2023-05-16T09:16:26;9.50;99.90
5828;DHT22;42583;50.240;8.444;2023-05-16T09:31:28;9.30;99.90
5828;DHT22;42583;50.240;8.444;2023-05-16T09:46:37;9.20;99.90
5828;DHT22;42583;50.240;8.444;2023-05-16T10:01:38;9.60;99.90
5828;DHT22;42583;50.240;8.444;2023-05-16T10:16:42;9.90;99.90
5828;DHT22;42583;50.240;8.444;2023-05-16T10:31:43;10.30;99.90
5828;DHT22;42583;50.240;8.444;2023-05-16T10:46:46;10.60;99.90
5828;DHT22;42583;50.240;8.444;2023-05-16T11:01:52;11.10;99.90
5828;DHT22;42583;50.240;8.444;2023-05-16T11:32:06;13.20;98.10
5828;DHT22;42583;50.240;8.444;2023-05-16T11:47:07;14.70;91.60
5828;DHT22;42583;50.240;8.444;2023-05-16T12:02:09;15.90;81.00
5828;DHT22;42583;50.240;8.444;2023-05-16T12:17:09;16.50;70.80
5828;DHT22;42583;50.240;8.444;2023-05-16T12:32:10;17.00;63.60
5828;DHT22;42583;50.240;8.444;2023-05-16T12:47:11;16.40;59.00
5828;DHT22;42583;50.240;8.444;2023-05-16T13:02:12;16.60;58.30
5828;DHT22;42583;50.240;8.444;2023-05-16T13:17:12;17.20;55.10
5828;DHT22;42583;50.240;8.444;2023-05-16T13:32:13;17.20;52.60
5828;DHT22;42583;50.240;8.444;2023-05-16T13:47:13;16.70;50.30
5828;DHT22;42583;50.240;8.444;2023-05-16T14:02:14;16.80;49.90
5828;DHT22;42583;50.240;8.444;2023-05-16T14:17:14;16.80;50.30
5828;DHT22;42583;50.240;8.444;2023-05-16T14:32:19;16.00;50.00
5828;DHT22;42583;50.240;8.444;2023-05-16T14:47:20;15.30;49.00
5828;DHT22;42583;50.240;8.444;2023-05-16T15:02:20;14.90;49.50
5828;DHT22;42583;50.240;8.444;2023-05-16T15:17:21;15.20;48.80
5828;DHT22;42583;50.240;8.444;2023-05-16T15:32:22;15.30;48.10
5828;DHT22;42583;50.240;8.444;2023-05-16T15:47:22;14.80;47.70
5828;DHT22;42583;50.240;8.444;2023-05-16T16:02:23;14.90;47.90
5828;DHT22;42583;50.240;8.444;2023-05-16T16:17:24;14.70;48.80
5828;DHT22;42583;50.240;8.444;2023-05-16T16:32:24;14.10;49.00
5828;DHT22;42583;50.240;8.444;2023-05-16T16:47:25;13.80;49.30
5828;DHT22;42583;50.240;8.444;2023-05-16T17:02:26;13.30;50.00
5828;DHT22;42583;50.240;8.444;2023-05-16T17:17:29;13.00;49.50
5828;DHT22;42583;50.240;8.444;2023-05-16T17:32:30;12.90;50.90
5828;DHT22;42583;50.240;8.444;2023-05-16T17:47:31;12.80;51.00
5828;DHT22;42583;50.240;8.444;2023-05-16T18:02:32;12.40;51.00
5828;DHT22;42583;50.240;8.444;2023-05-16T18:17:33;11.90;51.40
5828;DHT22;42583;50.240;8.444;2023-05-16T18:32:34;11.60;52.60
5828;DHT22;42583;50.240;8.444;2023-05-16T18:47:35;11.20;53.40
5828;DHT22;42583;50.240;8.444;2023-05-16T19:02:36;10.90;54.00
5828;DHT22;42583;50.240;8.444;2023-05-16T19:17:36;10.60;54.70
5828;DHT22;42583;50.240;8.444;2023-05-16T19:32:38;10.20;55.50
5828;DHT22;42583;50.240;8.444;2023-05-16T19:47:39;9.90;57.00
5828;DHT22;42583;50.240;8.444;2023-05-16T20:02:40;9.70;57.60
5828;DHT22;42583;50.240;8.444;2023-05-16T20:17:42;9.40;58.10
5828;DHT22;42583;50.240;8.444;2023-05-16T20:32:43;9.20;58.80
5828;DHT22;42583;50.240;8.444;2023-05-16T20:47:44;9.00;59.60
5828;DHT22;42583;50.240;8.444;2023-05-16T21:02:44;8.80;60.80
5828;DHT22;42583;50.240;8.444;2023-05-16T21:17:46;8.70;62.70
5828;DHT22;42583;50.240;8.444;2023-05-16T21:32:46;8.50;63.60
5828;DHT22;42583;50.240;8.444;2023-05-16T21:47:47;8.40;65.60
5828;DHT22;42583;50.240;8.444;2023-05-16T22:02:47;8.20;66.90
5828;DHT22;42583;50.240;8.444;2023-05-16T22:17:48;8.10;69.30
5828;DHT22;42583;50.240;8.444;2023-05-16T22:32:48;7.90;72.40
5828;DHT22;42583;50.240;8.444;2023-05-16T22:47:49;7.80;76.90
5828;DHT22;42583;50.240;8.444;2023-05-16T23:02:50;7.70;78.80
5828;DHT22;42583;50.240;8.444;2023-05-16T23:17:50;7.60;80.50
5828;DHT22;42583;50.240;8.444;2023-05-16T23:32:51;7.40;83.80
5828;DHT22;42583;50.240;8.444;2023-05-16T23:47:52;7.30;85.60
